Date,TemperatureHighF,TemperatureAvgF,TemperatureLowF,DewpointHighF,DewpointAvgF,DewpointLowF,HumidityHigh,HumidityAvg,HumidityLow,PressureMaxIn,PressureMinIn,WindSpeedMaxMPH,WindSpeedAvgMPH,GustSpeedMaxMPH,PrecipitationSumIn
2012-12-1,55.3,44.5,34.8,48.7,40.8,33.1,96,87,74,30.21,29.96,22,5,22,0.00
2012-12-2,57.0,53.6,43.5,54.3,50.2,42.0,95,89,76,30.05,29.87,20,4,22,0.15
2012-12-3,60.7,52.6,39.4,59.1,51.2,38.0,97,95,86,30.07,29.86,19,4,21,0.01
2012-12-4,60.2,50.3,41.1,56.1,45.5,33.1,94,83,71,30.07,29.84,18,5,18,0.30
2012-12-5,41.2,31.1,20.9,33.1,23.8,18.5,92,75,58,30.36,30.07,15,4,15,0.02
2012-12-6,36.7,30.7,21.1,31.0,26.4,19.1,93,84,74,30.32,29.93,12,3,13,0.00
2012-12-7,42.0,39.1,34.4,40.9,37.3,31.0,97,93,86,29.94,29.83,7,1,7,0.08
2012-12-8,40.9,37.1,32.8,40.1,35.2,29.6,97,93,87,30.13,29.78,14,3,14,0.19
2012-12-9,38.1,35.5,32.9,37.2,33.3,29.6,97,92,84,30.13,29.61,19,5,19,0.09
2012-12-10,41.2,36.5,29.9,40.1,33.0,23.8,97,87,77,29.83,29.57,19,5,19,0.00
2012-12-11,35.6,28.9,24.7,28.5,23.3,20.9,92,80,63,30.13,29.83,15,3,17,0.00
2012-12-12,42.5,31.6,24.5,28.0,24.8,21.5,89,77,52,30.34,30.14,13,3,14,0.00
2012-12-13,43.7,34.1,24.7,30.1,26.8,22.2,90,75,54,30.34,30.13,14,4,15,0.00
2012-12-14,47.6,35.9,27.3,35.0,29.1,23.6,95,77,57,30.22,30.13,8,1,9,0.00
2012-12-15,43.9,37.3,31.4,42.6,34.3,28.9,96,89,73,30.14,29.65,15,4,15,0.13
2012-12-16,50.7,47.1,40.7,48.5,44.7,38.0,97,91,83,29.65,29.54,18,4,18,0.05
2012-12-17,40.7,39.4,36.9,38.0,35.2,32.7,90,85,80,29.69,29.58,10,2,11,0.00
2012-12-18,39.2,35.5,31.7,33.6,31.4,28.2,94,85,67,29.74,29.60,14,4,14,0.04
2012-12-19,40.1,35.7,30.3,35.1,33.1,28.5,96,90,77,30.08,29.68,9,2,10,0.01
2012-12-20,47.5,39.1,33.1,45.9,36.9,30.7,96,92,79,30.04,29.10,28,8,28,0.71
2012-12-21,33.3,32.0,30.2,31.9,28.1,24.0,95,86,74,29.88,29.12,33,9,33,0.02
2012-12-22,35.6,29.9,24.3,25.6,23.5,20.4,89,77,63,30.07,29.88,27,7,27,0.00
2012-12-23,34.6,26.2,16.7,26.9,21.5,14.5,94,82,71,30.02,29.87,12,2,12,0.00
2012-12-24,33.4,26.5,18.5,28.3,23.7,16.5,93,89,80,29.99,29.79,16,3,16,0.00
2012-12-25,31.9,27.6,19.8,25.8,23.1,17.9,93,83,74,30.28,29.98,12,3,12,0.01
2012-12-26,29.3,27.7,25.2,26.4,24.5,23.0,94,88,79,30.24,29.80,26,8,26,0.00
2012-12-27,31.5,24.5,12.9,25.6,21.3,10.7,92,88,75,30.14,29.87,13,4,13,0.00
2012-12-28,30.4,21.9,9.4,26.8,19.3,6.7,93,89,85,30.17,29.91,9,1,10,0.01
2012-12-29,28.3,26.2,21.7,25.5,23.9,19.8,94,91,87,30.06,29.79,10,4,10,0.08
2012-12-30,28.3,23.2,16.8,26.4,20.0,14.2,94,87,79,30.29,30.06,16,4,16,0.01
2012-12-31,35.1,28.2,17.0,28.6,23.3,14.6,90,82,73,30.18,29.92,20,5,20,0.00